Time;durP1;ratioP1;P1;durP2;ratioP2;P2;SDS_P1;SDS_P2;PMS_P1;PMS_P2;Temp;Humidity;BMP_temperature;BMP_pressure;BME280_temperature;BME280_humidity;BME280_pressure;Samples;Min_cycle;Max_cycle;Signal;HPM_P1;HPM_P2
2024/01/21 00:00:48;;;;;;;;;;;0.50;76.00;;;;;;5084063;28;20120;-73
2024/01/21 00:03:14;;;;;;;;;;;0.50;77.90;;;;;;5085992;28;19931;-73
2024/01/21 00:05:40;;;;;;;;;;;0.40;76.70;;;;;;5086091;28;19927;-73
2024/01/21 00:08:06;;;;;;;;;;;0.40;76.80;;;;;;5101312;28;19934;-73
2024/01/21 00:10:31;;;;;;;;;;;0.50;79.40;;;;;;5083858;28;20592;-73
2024/01/21 00:12:57;;;;;;;;;;;0.40;79.10;;;;;;5083782;27;19939;-72
2024/01/21 00:15:23;;;;;;;;;;;1.30;79.10;;;;;;5084031;28;19938;-73
2024/01/21 00:17:48;;;;;;;;;;;0.50;78.50;;;;;;5066496;28;19924;-73
2024/01/21 00:20:14;;;;;;;;;;;0.40;78.90;;;;;;5066927;28;19959;-73
2024/01/21 00:22:40;;;;;;;;;;;0.40;75.50;;;;;;5082650;27;19980;-73
2024/01/21 00:25:09;;;;;;;;;;;1.00;74.90;;;;;;5068165;28;19920;-73
2024/01/21 00:27:37;;;;;;;;;;;0.40;73.30;;;;;;5100501;27;19992;-72
2024/01/21 00:30:04;;;;;;;;;;;1.10;76.10;;;;;;5082022;27;19931;-73
2024/01/21 00:32:29;;;;;;;;;;;0.40;75.50;;;;;;5068182;28;19995;-73
2024/01/21 00:34:55;;;;;;;;;;;0.40;75.50;;;;;;5083077;28;20389;-73
2024/01/21 00:37:21;;;;;;;;;;;0.90;76.20;;;;;;5067211;28;19931;-73
2024/01/21 00:39:46;;;;;;;;;;;0.40;78.20;;;;;;5100565;28;19954;-73
2024/01/21 00:42:13;;;;;;;;;;;0.90;78.20;;;;;;5069785;28;19932;-73
2024/01/21 00:44:38;;;;;;;;;;;0.40;78.40;;;;;;5065494;28;20486;-74
2024/01/21 00:47:04;;;;;;;;;;;1.20;77.60;;;;;;5052824;28;19924;-73
2024/01/21 00:49:31;;;;;;;;;;;0.40;75.00;;;;;;5083246;28;19931;-73
2024/01/21 00:51:57;;;;;;;;;;;0.50;72.00;;;;;;5082203;28;19931;-73
2024/01/21 00:54:22;;;;;;;;;;;0.90;73.30;;;;;;5067280;28;19931;-73
2024/01/21 00:56:48;;;;;;;;;;;0.50;74.00;;;;;;5067504;28;19978;-73
2024/01/21 00:59:14;;;;;;;;;;;0.70;73.20;;;;;;5082442;28;19932;-72
2024/01/21 01:01:39;;;;;;;;;;;0.60;73.00;;;;;;5080701;28;19931;-73
2024/01/21 01:04:05;;;;;;;;;;;0.60;72.60;;;;;;5065332;28;19924;-73
2024/01/21 01:06:34;;;;;;;;;;;0.60;71.40;;;;;;5083524;28;19951;-73
2024/01/21 01:09:00;;;;;;;;;;;0.60;73.80;;;;;;5084206;27;19972;-73
2024/01/21 01:11:26;;;;;;;;;;;0.60;73.80;;;;;;5080960;28;19927;-73
2024/01/21 01:13:51;;;;;;;;;;;0.80;72.10;;;;;;5084773;27;20375;-73
2024/01/21 01:16:17;;;;;;;;;;;0.60;72.30;;;;;;5085378;27;19924;-73
2024/01/21 01:18:43;;;;;;;;;;;0.50;70.40;;;;;;5068122;28;20704;-73
2024/01/21 01:21:12;;;;;;;;;;;0.60;69.50;;;;;;5084980;28;20633;-72
2024/01/21 01:23:38;;;;;;;;;;;0.60;68.30;;;;;;5098487;27;19930;-73
2024/01/21 01:26:04;;;;;;;;;;;2.50;69.20;;;;;;5084148;27;19928;-73
2024/01/21 01:28:31;;;;;;;;;;;0.60;67.50;;;;;;5067755;27;20336;-72
2024/01/21 01:30:57;;;;;;;;;;;0.90;68.90;;;;;;5068618;27;20295;-73
2024/01/21 01:33:22;;;;;;;;;;;0.50;70.30;;;;;;5082069;28;19939;-73
2024/01/21 01:35:48;;;;;;;;;;;1.00;69.70;;;;;;5084153;28;20333;-73
2024/01/21 01:38:14;;;;;;;;;;;2.20;71.40;;;;;;5081700;28;19927;-73
2024/01/21 01:40:39;;;;;;;;;;;0.50;69.60;;;;;;5083978;28;19927;-72
2024/01/21 01:43:05;;;;;;;;;;;1.40;69.50;;;;;;5063972;28;19928;-73
2024/01/21 01:45:30;;;;;;;;;;;0.40;67.10;;;;;;5077733;28;19980;-73
2024/01/21 01:47:57;;;;;;;;;;;1.60;68.20;;;;;;5100902;28;19924;-73
2024/01/21 01:50:23;;;;;;;;;;;0.40;68.80;;;;;;5082241;28;19976;-74
2024/01/21 01:52:49;;;;;;;;;;;0.40;70.20;;;;;;5081685;28;20263;-73
2024/01/21 01:55:15;;;;;;;;;;;0.30;67.90;;;;;;5061207;28;19959;-73
2024/01/21 01:57:41;;;;;;;;;;;0.30;68.10;;;;;;5082534;28;20066;-73
2024/01/21 02:00:06;;;;;;;;;;;0.30;68.20;;;;;;5083509;28;19928;-73
2024/01/21 02:02:33;;;;;;;;;;;0.30;70.40;;;;;;5081236;28;19928;-73
2024/01/21 02:05:00;;;;;;;;;;;0.20;68.10;;;;;;5064768;28;19931;-73
2024/01/21 02:07:26;;;;;;;;;;;0.30;67.60;;;;;;5081884;28;19934;-73
2024/01/21 02:09:51;;;;;;;;;;;0.30;66.50;;;;;;5083562;28;19924;-73
2024/01/21 02:12:18;;;;;;;;;;;-1.20;65.20;;;;;;5067798;28;20418;-73
2024/01/21 02:14:43;;;;;;;;;;;0.40;66.70;;;;;;5065180;28;19924;-73
2024/01/21 02:17:09;;;;;;;;;;;0.40;64.40;;;;;;5082028;28;19931;-73
2024/01/21 02:19:35;;;;;;;;;;;0.40;63.30;;;;;;5083985;28;20034;-73
2024/01/21 02:22:00;;;;;;;;;;;0.40;65.10;;;;;;5083525;28;19927;-73
2024/01/21 02:24:30;;;;;;;;;;;1.50;64.60;;;;;;5102360;28;20064;-73
2024/01/21 02:26:56;;;;;;;;;;;0.50;61.40;;;;;;5080414;28;19934;-73
2024/01/21 02:29:22;;;;;;;;;;;1.60;60.40;;;;;;5083285;28;20043;-73
2024/01/21 02:31:47;;;;;;;;;;;0.50;61.20;;;;;;5065040;28;19934;-73
2024/01/21 02:34:13;;;;;;;;;;;0.50;59.40;;;;;;5066261;28;20014;-73
2024/01/21 02:36:39;;;;;;;;;;;0.50;62.50;;;;;;5080264;28;20016;-73
2024/01/21 02:39:04;;;;;;;;;;;2.10;62.30;;;;;;5083342;28;19924;-73
2024/01/21 02:41:30;;;;;;;;;;;0.70;64.90;;;;;;5068220;28;20126;-73
2024/01/21 02:43:56;;;;;;;;;;;0.50;66.00;;;;;;5067534;28;19984;-73
2024/01/21 02:46:22;;;;;;;;;;;0.50;64.70;;;;;;5079620;28;20043;-72
2024/01/21 02:48:47;;;;;;;;;;;0.50;63.50;;;;;;5082102;28;20771;-72
2024/01/21 02:51:13;;;;;;;;;;;0.50;60.20;;;;;;5082838;28;19927;-73
2024/01/21 02:53:39;;;;;;;;;;;0.50;60.10;;;;;;5084393;28;19934;-73
2024/01/21 02:56:05;;;;;;;;;;;0.50;60.50;;;;;;5082887;28;19924;-72
2024/01/21 02:58:31;;;;;;;;;;;1.00;61.80;;;;;;5080250;28;20306;-72
2024/01/21 03:00:56;;;;;;;;;;;0.60;60.70;;;;;;5098397;28;19982;-73
2024/01/21 03:03:22;;;;;;;;;;;1.50;61.00;;;;;;5087565;27;19985;-73
2024/01/21 03:05:47;;;;;;;;;;;0.50;60.70;;;;;;5065430;28;19966;-72
2024/01/21 03:08:14;;;;;;;;;;;1.00;60.00;;;;;;5084416;28;19996;-72
2024/01/21 03:10:40;;;;;;;;;;;0.60;62.10;;;;;;5071111;28;20526;-72
2024/01/21 03:13:07;;;;;;;;;;;0.50;58.60;;;;;;5085064;28;19979;-73
2024/01/21 03:15:33;;;;;;;;;;;2.00;57.40;;;;;;5069966;28;20283;-72
2024/01/21 03:17:58;;;;;;;;;;;1.00;58.50;;;;;;5084457;28;19928;-72
2024/01/21 03:20:24;;;;;;;;;;;0.60;57.20;;;;;;5086340;28;20006;-73
2024/01/21 03:22:50;;;;;;;;;;;1.50;55.70;;;;;;5101858;27;19934;-73
2024/01/21 03:25:15;;;;;;;;;;;1.50;52.70;;;;;;5102724;27;20298;-72
2024/01/21 03:27:41;;;;;;;;;;;1.50;54.70;;;;;;5085706;28;20023;-72
2024/01/21 03:30:07;;;;;;;;;;;1.00;54.70;;;;;;5070575;28;20193;-72
2024/01/21 03:32:33;;;;;;;;;;;0.70;50.30;;;;;;5084751;27;20436;-72
2024/01/21 03:34:58;;;;;;;;;;;0.90;54.30;;;;;;5084676;28;19976;-73
2024/01/21 03:37:24;;;;;;;;;;;1.50;56.00;;;;;;5084829;28;19924;-72
2024/01/21 03:39:49;;;;;;;;;;;0.60;52.80;;;;;;5068657;28;19923;-73
2024/01/21 03:42:15;;;;;;;;;;;1.40;52.60;;;;;;5070359;28;20039;-72
2024/01/21 03:44:41;;;;;;;;;;;0.80;47.20;;;;;;5067894;27;19934;-72
2024/01/21 03:47:07;;;;;;;;;;;0.80;48.00;;;;;;5069953;27;20018;-72
2024/01/21 03:49:32;;;;;;;;;;;0.80;47.30;;;;;;5083940;28;19928;-72
2024/01/21 03:51:58;;;;;;;;;;;0.90;52.30;;;;;;5069736;28;19982;-72
2024/01/21 03:54:30;;;;;;;;;;;1.90;46.80;;;;;;5086519;28;19930;-73
2024/01/21 03:56:56;;;;;;;;;;;0.90;45.20;;;;;;5087831;27;19967;-72
2024/01/21 03:59:22;;;;;;;;;;;2.20;49.00;;;;;;5070517;28;20067;-72
2024/01/21 04:01:50;;;;;;;;;;;1.00;45.30;;;;;;5071035;27;19924;-72
2024/01/21 04:04:16;;;;;;;;;;;0.90;49.00;;;;;;5105853;27;19949;-72
2024/01/21 04:06:42;;;;;;;;;;;0.90;42.80;;;;;;5087696;28;20389;-72
2024/01/21 04:09:12;;;;;;;;;;;1.40;42.50;;;;;;5076759;28;19931;-72
2024/01/21 04:11:40;;;;;;;;;;;0.80;42.90;;;;;;5081292;28;19939;-72
2024/01/21 04:14:06;;;;;;;;;;;0.90;44.20;;;;;;5102884;27;19935;-73
2024/01/21 04:16:32;;;;;;;;;;;0.90;43.70;;;;;;5084405;28;19923;-73
2024/01/21 04:18:57;;;;;;;;;;;0.90;45.50;;;;;;5101473;28;19928;-72
2024/01/21 04:21:23;;;;;;;;;;;0.80;43.20;;;;;;5086554;28;19943;-71
2024/01/21 04:23:49;;;;;;;;;;;0.80;45.10;;;;;;5082358;28;19982;-72
2024/01/21 04:26:15;;;;;;;;;;;0.80;49.00;;;;;;5086582;27;19942;-73
2024/01/21 04:28:42;;;;;;;;;;;2.50;50.30;;;;;;5087326;27;20431;-72
2024/01/21 04:31:07;;;;;;;;;;;0.80;50.50;;;;;;5086261;28;20066;-72
2024/01/21 04:33:35;;;;;;;;;;;0.80;50.20;;;;;;5085569;28;19931;-72
2024/01/21 04:36:01;;;;;;;;;;;0.80;51.80;;;;;;5105214;28;20432;-73
2024/01/21 04:38:26;;;;;;;;;;;0.80;51.40;;;;;;5087453;28;20018;-72
2024/01/21 04:40:55;;;;;;;;;;;1.80;53.30;;;;;;5067426;28;19987;-72
2024/01/21 04:43:20;;;;;;;;;;;0.80;52.10;;;;;;5067663;27;19924;-72
2024/01/21 04:45:46;;;;;;;;;;;1.80;54.90;;;;;;5068582;28;20816;-72
2024/01/21 04:48:12;;;;;;;;;;;1.20;56.40;;;;;;5068781;28;20007;-72
2024/01/21 04:50:37;;;;;;;;;;;1.50;57.80;;;;;;5052856;28;19976;-72
2024/01/21 04:53:03;;;;;;;;;;;0.90;57.70;;;;;;5069884;28;19931;-72
2024/01/21 04:55:29;;;;;;;;;;;0.80;55.90;;;;;;5068558;28;19928;-73
2024/01/21 04:57:54;;;;;;;;;;;0.90;54.20;;;;;;5086782;28;19985;-72
2024/01/21 05:00:20;;;;;;;;;;;2.70;51.70;;;;;;5057577;28;19980;-72
2024/01/21 05:02:46;;;;;;;;;;;0.90;54.00;;;;;;5085407;28;20379;-71
2024/01/21 05:05:11;;;;;;;;;;;0.90;52.50;;;;;;5087645;28;19932;-72
2024/01/21 05:07:37;;;;;;;;;;;2.40;52.90;;;;;;5088302;28;19932;-72
2024/01/21 05:10:03;;;;;;;;;;;1.00;53.30;;;;;;5088903;28;19999;-72
2024/01/21 05:12:28;;;;;;;;;;;0.90;54.20;;;;;;5058929;28;20002;-73
2024/01/21 05:14:55;;;;;;;;;;;0.90;52.60;;;;;;5083256;28;19928;-72
2024/01/21 05:17:21;;;;;;;;;;;1.00;52.70;;;;;;5084117;28;19932;-72
2024/01/21 05:19:47;;;;;;;;;;;1.00;53.20;;;;;;5086743;28;20339;-72
2024/01/21 05:22:12;;;;;;;;;;;1.20;49.10;;;;;;5059931;28;20347;-72
2024/01/21 05:24:38;;;;;;;;;;;1.00;53.00;;;;;;5086348;28;19924;-73
2024/01/21 05:27:03;;;;;;;;;;;1.00;51.40;;;;;;5084559;28;20243;-72
2024/01/21 05:29:29;;;;;;;;;;;1.00;52.50;;;;;;5067593;28;19938;-71
2024/01/21 05:31:55;;;;;;;;;;;1.00;50.50;;;;;;5084714;28;19931;-73
2024/01/21 05:34:21;;;;;;;;;;;1.00;50.30;;;;;;5066763;28;19932;-72
2024/01/21 05:36:46;;;;;;;;;;;1.00;51.40;;;;;;5064880;27;19935;-72
2024/01/21 05:39:13;;;;;;;;;;;1.10;50.30;;;;;;5082957;28;19970;-73
2024/01/21 05:41:39;;;;;;;;;;;1.10;49.70;;;;;;5101699;28;19924;-72
2024/01/21 05:44:05;;;;;;;;;;;1.90;50.00;;;;;;5049250;27;20287;-72
2024/01/21 05:46:30;;;;;;;;;;;1.10;51.20;;;;;;5065916;28;19939;-71
2024/01/21 05:48:56;;;;;;;;;;;2.00;53.70;;;;;;5065961;28;19939;-73
2024/01/21 05:51:22;;;;;;;;;;;1.10;55.30;;;;;;5083523;28;19928;-73
2024/01/21 05:53:47;;;;;;;;;;;1.20;55.90;;;;;;5082516;28;19931;-73
2024/01/21 05:56:16;;;;;;;;;;;1.20;54.50;;;;;;5082546;28;20048;-73
2024/01/21 05:58:42;;;;;;;;;;;1.20;53.80;;;;;;5101556;27;19951;-73
2024/01/21 06:01:07;;;;;;;;;;;1.80;53.00;;;;;;5083686;28;19928;-73
2024/01/21 06:03:33;;;;;;;;;;;1.20;51.20;;;;;;5064870;28;20032;-73
2024/01/21 06:05:59;;;;;;;;;;;1.80;49.70;;;;;;5050596;28;19975;-73
2024/01/21 06:08:24;;;;;;;;;;;2.10;52.20;;;;;;5064145;27;19952;-72
2024/01/21 06:10:50;;;;;;;;;;;1.20;50.10;;;;;;5066660;28;19928;-73
2024/01/21 06:13:16;;;;;;;;;;;1.20;54.90;;;;;;5082239;28;19959;-73
2024/01/21 06:15:42;;;;;;;;;;;1.30;49.80;;;;;;5099436;28;19964;-72
2024/01/21 06:18:08;;;;;;;;;;;1.60;51.00;;;;;;5082575;28;19978;-73
2024/01/21 06:20:33;;;;;;;;;;;1.60;51.60;;;;;;5079725;28;19924;-73
2024/01/21 06:22:59;;;;;;;;;;;2.30;52.90;;;;;;5082191;28;19927;-72
2024/01/21 06:25:24;;;;;;;;;;;1.30;51.30;;;;;;5065023;28;19931;-72
2024/01/21 06:27:50;;;;;;;;;;;1.60;53.80;;;;;;5064484;28;19936;-72
2024/01/21 06:30:18;;;;;;;;;;;1.20;55.10;;;;;;5083368;28;21102;-72
2024/01/21 06:32:43;;;;;;;;;;;2.60;54.90;;;;;;5081295;28;19923;-72
2024/01/21 06:35:10;;;;;;;;;;;2.70;55.20;;;;;;5081915;28;20263;-73
2024/01/21 06:37:36;;;;;;;;;;;1.20;56.20;;;;;;5099441;28;19927;-72
2024/01/21 06:40:04;;;;;;;;;;;1.20;56.20;;;;;;5064344;28;19927;-72
2024/01/21 06:42:29;;;;;;;;;;;1.20;57.20;;;;;;5079868;28;19949;-73
2024/01/21 06:44:55;;;;;;;;;;;1.70;57.50;;;;;;5082946;28;20047;-72
2024/01/21 06:47:21;;;;;;;;;;;1.20;55.50;;;;;;5064256;28;19971;-73
2024/01/21 06:49:46;;;;;;;;;;;1.20;55.40;;;;;;5082947;28;20043;-72
2024/01/21 06:52:12;;;;;;;;;;;1.20;56.60;;;;;;5080487;28;19966;-73
2024/01/21 06:54:38;;;;;;;;;;;1.20;55.10;;;;;;5048975;28;20707;-73
2024/01/21 06:57:04;;;;;;;;;;;1.80;57.40;;;;;;5064541;28;19988;-73
2024/01/21 06:59:29;;;;;;;;;;;1.80;56.10;;;;;;5081391;28;20016;-72
2024/01/21 07:01:55;;;;;;;;;;;1.20;56.90;;;;;;5081433;28;19932;-73
2024/01/21 07:04:20;;;;;;;;;;;2.60;57.80;;;;;;5081524;28;19924;-73
2024/01/21 07:06:46;;;;;;;;;;;2.10;58.70;;;;;;5100204;28;19932;-72
2024/01/21 07:09:14;;;;;;;;;;;1.20;57.00;;;;;;5066778;28;19974;-73
2024/01/21 07:11:42;;;;;;;;;;;1.10;58.30;;;;;;5081137;28;19924;-73
2024/01/21 07:14:08;;;;;;;;;;;1.20;58.20;;;;;;5080518;28;20384;-73
2024/01/21 07:16:34;;;;;;;;;;;1.20;58.40;;;;;;5078533;28;19927;-73
2024/01/21 07:18:59;;;;;;;;;;;1.70;59.40;;;;;;5081147;28;20343;-77
2024/01/21 07:21:25;;;;;;;;;;;1.20;58.50;;;;;;5067947;28;19935;-77
2024/01/21 07:23:51;;;;;;;;;;;1.20;59.20;;;;;;5085124;28;20004;-77
2024/01/21 07:26:18;;;;;;;;;;;1.20;59.50;;;;;;5083973;28;19927;-76
2024/01/21 07:28:43;;;;;;;;;;;2.00;59.20;;;;;;5086646;28;20411;-79
2024/01/21 07:31:09;;;;;;;;;;;1.70;59.50;;;;;;5084292;28;19977;-73
2024/01/21 07:33:34;;;;;;;;;;;1.20;60.50;;;;;;5099143;28;20420;-73
2024/01/21 07:36:03;;;;;;;;;;;2.70;62.70;;;;;;5079938;28;19928;-73
2024/01/21 07:38:29;;;;;;;;;;;1.20;62.60;;;;;;5064759;28;20341;-72
2024/01/21 07:40:56;;;;;;;;;;;3.20;65.70;;;;;;5066159;28;21505;-73
2024/01/21 07:43:22;;;;;;;;;;;1.80;65.80;;;;;;5082290;28;19932;-73
2024/01/21 07:45:49;;;;;;;;;;;1.20;67.90;;;;;;5083826;28;19939;-78
2024/01/21 07:48:15;;;;;;;;;;;1.20;71.50;;;;;;5084089;28;19932;-77
2024/01/21 07:50:40;;;;;;;;;;;2.20;73.60;;;;;;5102203;27;19923;-77
2024/01/21 07:53:06;;;;;;;;;;;1.10;75.10;;;;;;5084296;28;19991;-77
2024/01/21 07:55:31;;;;;;;;;;;1.10;74.60;;;;;;5087922;28;19928;-78
2024/01/21 07:57:57;;;;;;;;;;;1.50;75.20;;;;;;5069228;28;19930;-77
2024/01/21 08:00:23;;;;;;;;;;;2.40;76.30;;;;;;5085176;28;19939;-76
2024/01/21 08:02:50;;;;;;;;;;;1.10;77.70;;;;;;5069905;28;20512;-77
2024/01/21 08:05:16;;;;;;;;;;;1.20;77.50;;;;;;5085889;27;19923;-76
2024/01/21 08:07:41;;;;;;;;;;;1.20;77.90;;;;;;5067305;28;20484;-78
2024/01/21 08:10:07;;;;;;;;;;;2.00;78.90;;;;;;5084913;27;20439;-77
2024/01/21 08:12:33;;;;;;;;;;;1.10;78.50;;;;;;5082429;28;19939;-77
2024/01/21 08:14:59;;;;;;;;;;;1.00;78.90;;;;;;5087566;27;19935;-76
2024/01/21 08:17:24;;;;;;;;;;;1.20;79.80;;;;;;5066892;28;20354;-77
2024/01/21 08:19:50;;;;;;;;;;;2.50;80.30;;;;;;5083652;28;19947;-77
2024/01/21 08:22:17;;;;;;;;;;;1.80;80.10;;;;;;5088398;28;19975;-77
2024/01/21 08:24:42;;;;;;;;;;;2.30;81.20;;;;;;5086652;28;19931;-73
2024/01/21 08:27:08;;;;;;;;;;;1.70;80.90;;;;;;5084193;28;19927;-77
2024/01/21 08:29:36;;;;;;;;;;;1.20;80.50;;;;;;5084337;28;19935;-77
2024/01/21 08:32:03;;;;;;;;;;;1.20;80.60;;;;;;5063994;27;19965;-77
2024/01/21 08:34:29;;;;;;;;;;;1.20;81.50;;;;;;5102998;27;19927;-77
2024/01/21 08:36:56;;;;;;;;;;;2.90;82.40;;;;;;5083483;28;19954;-77
2024/01/21 08:39:22;;;;;;;;;;;1.40;81.80;;;;;;5084917;28;20592;-77
2024/01/21 08:41:47;;;;;;;;;;;1.80;82.30;;;;;;5082882;28;19930;-77
2024/01/21 08:44:13;;;;;;;;;;;1.40;82.80;;;;;;5070594;28;20321;-78
2024/01/21 08:46:38;;;;;;;;;;;1.60;82.70;;;;;;5066824;28;19928;-73
2024/01/21 08:49:04;;;;;;;;;;;1.90;82.70;;;;;;5103233;27;19935;-75
2024/01/21 08:51:35;;;;;;;;;;;1.50;83.20;;;;;;5067910;28;20558;-83
2024/01/21 08:54:07;;;;;;;;;;;1.30;83.60;;;;;;5069589;28;19958;-74
2024/01/21 08:56:35;;;;;;;;;;;1.60;83.90;;;;;;5065510;28;19931;-74
2024/01/21 08:59:07;;;;;;;;;;;1.50;83.90;;;;;;5082988;28;20413;-74
2024/01/21 09:01:33;;;;;;;;;;;2.10;83.80;;;;;;5099015;27;19931;-74
2024/01/21 09:04:06;;;;;;;;;;;1.60;84.70;;;;;;5082943;27;20031;-73
2024/01/21 09:06:31;;;;;;;;;;;1.70;83.50;;;;;;5082895;28;19931;-73
2024/01/21 09:08:57;;;;;;;;;;;1.70;83.80;;;;;;5066816;28;19953;-72
2024/01/21 09:11:25;;;;;;;;;;;1.80;83.40;;;;;;5084154;28;19927;-76
2024/01/21 09:13:51;;;;;;;;;;;1.70;82.80;;;;;;5082222;28;19927;-77
2024/01/21 09:16:19;;;;;;;;;;;1.90;83.00;;;;;;5082074;28;19924;-76
2024/01/21 09:18:45;;;;;;;;;;;1.90;83.20;;;;;;5064378;28;20002;-81
2024/01/21 09:21:11;;;;;;;;;;;1.90;82.80;;;;;;5086086;28;19928;-78
2024/01/21 09:23:36;;;;;;;;;;;2.10;83.60;;;;;;5105617;28;19961;-79
2024/01/21 09:26:03;;;;;;;;;;;1.90;83.80;;;;;;5083470;28;19924;-80
2024/01/21 09:28:29;;;;;;;;;;;2.10;83.50;;;;;;5085711;28;19936;-78
2024/01/21 09:30:54;;;;;;;;;;;2.10;84.00;;;;;;5103795;28;20291;-77
2024/01/21 09:33:20;;;;;;;;;;;2.10;84.30;;;;;;5067859;28;20377;-79
2024/01/21 09:35:51;;;;;;;;;;;2.20;84.50;;;;;;5084350;28;19934;-79
2024/01/21 09:38:18;;;;;;;;;;;2.20;84.40;;;;;;5071392;28;19924;-78
2024/01/21 09:40:47;;;;;;;;;;;2.30;84.50;;;;;;5086447;28;19916;-77
2024/01/21 09:43:14;;;;;;;;;;;2.30;84.70;;;;;;5086123;28;19931;-78
2024/01/21 09:45:41;;;;;;;;;;;2.40;84.90;;;;;;5101331;27;19923;-77
2024/01/21 09:48:07;;;;;;;;;;;4.30;86.40;;;;;;5087260;28;20325;-78
2024/01/21 09:50:34;;;;;;;;;;;2.40;85.40;;;;;;5067324;28;19932;-78
2024/01/21 09:52:59;;;;;;;;;;;2.30;85.90;;;;;;5083545;28;19920;-77
2024/01/21 09:55:25;;;;;;;;;;;2.20;86.40;;;;;;5068551;28;19928;-77
2024/01/21 09:57:51;;;;;;;;;;;2.70;86.70;;;;;;5086825;28;20022;-77
2024/01/21 10:00:18;;;;;;;;;;;2.30;87.20;;;;;;5087907;28;19934;-77
2024/01/21 10:02:45;;;;;;;;;;;3.90;88.50;;;;;;5088228;28;20049;-78
2024/01/21 10:05:11;;;;;;;;;;;2.60;87.70;;;;;;5069056;28;19931;-78
2024/01/21 10:07:38;;;;;;;;;;;2.40;87.80;;;;;;5065726;28;19932;-80
2024/01/21 10:10:03;;;;;;;;;;;2.70;88.30;;;;;;5067822;28;20043;-79
2024/01/21 10:12:29;;;;;;;;;;;2.40;88.50;;;;;;5084244;28;19927;-79
2024/01/21 10:14:56;;;;;;;;;;;2.50;89.00;;;;;;5107160;28;19973;-78
2024/01/21 10:17:25;;;;;;;;;;;2.60;89.50;;;;;;5084856;28;19928;-77
2024/01/21 10:19:52;;;;;;;;;;;2.60;90.10;;;;;;5090342;28;20041;-76
2024/01/21 10:22:18;;;;;;;;;;;2.60;90.30;;;;;;5103951;27;19928;-77
2024/01/21 10:24:45;;;;;;;;;;;2.80;90.50;;;;;;5088699;28;19931;-77
2024/01/21 10:27:12;;;;;;;;;;;2.60;90.60;;;;;;5088054;28;20015;-77
2024/01/21 10:29:45;;;;;;;;;;;2.60;90.70;;;;;;5105461;28;20294;-77
2024/01/21 10:32:12;;;;;;;;;;;3.00;91.00;;;;;;5098298;28;19931;-78
2024/01/21 10:34:45;;;;;;;;;;;2.60;90.90;;;;;;5077591;28;19939;-79
2024/01/21 10:37:13;;;;;;;;;;;4.00;92.00;;;;;;5086453;28;19924;-78
2024/01/21 10:39:40;;;;;;;;;;;2.60;91.20;;;;;;5088796;28;20092;-80
2024/01/21 10:42:06;;;;;;;;;;;3.50;91.90;;;;;;5087593;28;19927;-78
2024/01/21 10:44:34;;;;;;;;;;;2.80;92.20;;;;;;5072754;28;20028;-79
2024/01/21 10:47:04;;;;;;;;;;;3.00;92.10;;;;;;5110733;28;19935;-78
2024/01/21 10:49:31;;;;;;;;;;;3.00;92.50;;;;;;5092596;28;19966;-78
2024/01/21 10:51:57;;;;;;;;;;;3.10;92.60;;;;;;5092423;28;19936;-79
2024/01/21 10:54:24;;;;;;;;;;;3.00;93.10;;;;;;5073744;28;20876;-77
2024/01/21 10:56:50;;;;;;;;;;;3.00;93.30;;;;;;5071903;28;19967;-77
2024/01/21 10:59:16;;;;;;;;;;;2.60;93.90;;;;;;5087966;28;20370;-77
2024/01/21 11:01:42;;;;;;;;;;;2.90;94.50;;;;;;5082910;28;20282;-72
2024/01/21 11:04:12;;;;;;;;;;;3.20;94.00;;;;;;5082888;28;20042;-72
2024/01/21 11:06:41;;;;;;;;;;;2.90;94.30;;;;;;5065930;28;19928;-71
2024/01/21 11:09:07;;;;;;;;;;;3.10;94.60;;;;;;5099952;28;19928;-78
2024/01/21 11:11:40;;;;;;;;;;;3.20;94.90;;;;;;5086283;28;19978;-78
2024/01/21 11:14:25;;;;;;;;;;;3.00;95.50;;;;;;5087989;28;19923;-79
2024/01/21 11:16:57;;;;;;;;;;;3.20;96.10;;;;;;5089967;28;19924;-75
2024/01/21 11:19:54;;;;;;;;;;;3.30;96.50;;;;;;5107303;28;19923;-77
2024/01/21 11:22:42;;;;;;;;;;;3.00;96.70;;;;;;5073232;28;19936;-76
2024/01/21 11:25:39;;;;;;;;;;;2.80;97.00;;;;;;5089360;28;19990;-77
2024/01/21 11:28:34;;;;;;;;;;;3.10;96.30;;;;;;5107126;28;19927;-78
2024/01/21 11:31:00;;;;;;;;;;;3.20;96.90;;;;;;5073465;28;19928;-77
2024/01/21 11:33:27;;;;;;;;;;;3.10;97.90;;;;;;5103775;28;19932;-78
2024/01/21 11:35:54;;;;;;;;;;;3.10;97.30;;;;;;5085793;27;19939;-78
2024/01/21 11:38:19;;;;;;;;;;;3.40;97.50;;;;;;5073271;28;20022;-77
2024/01/21 11:40:46;;;;;;;;;;;3.40;97.40;;;;;;5091528;28;20029;-75
2024/01/21 11:43:11;;;;;;;;;;;3.40;97.60;;;;;;5090492;28;19970;-75
2024/01/21 11:45:43;;;;;;;;;;;2.90;97.60;;;;;;5088226;28;19932;-78
2024/01/21 11:48:11;;;;;;;;;;;3.50;98.30;;;;;;5091595;28;20353;-79
2024/01/21 11:50:37;;;;;;;;;;;3.40;98.10;;;;;;5105511;28;19969;-77
2024/01/21 11:53:03;;;;;;;;;;;2.90;97.90;;;;;;5075066;28;19935;-82
2024/01/21 11:55:28;;;;;;;;;;;3.00;97.80;;;;;;5107193;27;19928;-75
2024/01/21 11:57:54;;;;;;;;;;;3.20;98.20;;;;;;5086949;28;19988;-73
2024/01/21 12:00:20;;;;;;;;;;;3.00;98.00;;;;;;5103332;28;19927;-73
2024/01/21 12:02:46;;;;;;;;;;;3.50;97.80;;;;;;5106900;28;19932;-73
2024/01/21 12:05:16;;;;;;;;;;;2.90;98.30;;;;;;5070740;28;20055;-74
2024/01/21 12:07:42;;;;;;;;;;;3.20;98.40;;;;;;5070109;28;19968;-74
2024/01/21 12:10:09;;;;;;;;;;;3.20;99.40;;;;;;5089140;27;19980;-73
2024/01/21 12:12:35;;;;;;;;;;;3.10;99.50;;;;;;5087116;28;19928;-74
2024/01/21 12:15:00;;;;;;;;;;;3.30;99.70;;;;;;5087347;28;20432;-74
2024/01/21 12:17:26;;;;;;;;;;;3.30;99.60;;;;;;5086883;28;19960;-74
2024/01/21 12:19:52;;;;;;;;;;;3.20;99.80;;;;;;5061214;28;20032;-74
2024/01/21 12:22:17;;;;;;;;;;;3.30;99.60;;;;;;5084918;28;21352;-74
2024/01/21 12:24:43;;;;;;;;;;;3.40;99.80;;;;;;5067746;28;19962;-74
2024/01/21 12:27:12;;;;;;;;;;;3.30;99.40;;;;;;5086484;28;19977;-74
2024/01/21 12:29:37;;;;;;;;;;;3.30;99.90;;;;;;5085976;28;19932;-74
2024/01/21 12:32:04;;;;;;;;;;;3.30;99.90;;;;;;5085460;27;20001;-74
2024/01/21 12:34:30;;;;;;;;;;;3.30;99.90;;;;;;5086738;28;19928;-74
2024/01/21 12:36:56;;;;;;;;;;;3.70;99.90;;;;;;5087483;28;19935;-74
2024/01/21 12:39:23;;;;;;;;;;;3.30;99.90;;;;;;5086039;28;19981;-74
2024/01/21 12:41:49;;;;;;;;;;;3.50;99.90;;;;;;5105654;28;19923;-74
2024/01/21 12:44:14;;;;;;;;;;;3.50;99.90;;;;;;5083844;28;19973;-74
2024/01/21 12:46:42;;;;;;;;;;;3.40;99.90;;;;;;5087115;28;19973;-73
2024/01/21 12:49:08;;;;;;;;;;;3.40;99.90;;;;;;5083697;28;19934;-73
2024/01/21 12:51:34;;;;;;;;;;;4.20;99.90;;;;;;5082103;28;20374;-74
2024/01/21 12:54:00;;;;;;;;;;;3.50;99.90;;;;;;5100195;27;19930;-74
2024/01/21 12:56:26;;;;;;;;;;;4.20;99.90;;;;;;5082665;28;19927;-74
2024/01/21 12:58:52;;;;;;;;;;;3.70;99.90;;;;;;5066891;28;19934;-73
2024/01/21 13:01:18;;;;;;;;;;;3.80;99.90;;;;;;5101373;28;20043;-74
2024/01/21 13:03:43;;;;;;;;;;;3.50;99.90;;;;;;5083224;28;20396;-74
2024/01/21 13:06:09;;;;;;;;;;;3.70;99.90;;;;;;5069322;28;19938;-74
2024/01/21 13:08:39;;;;;;;;;;;3.40;99.90;;;;;;5069614;28;20394;-74
2024/01/21 13:11:04;;;;;;;;;;;3.40;99.90;;;;;;5102524;28;19926;-74
2024/01/21 13:13:30;;;;;;;;;;;3.60;99.90;;;;;;5067562;28;19927;-74
2024/01/21 13:15:56;;;;;;;;;;;3.40;99.90;;;;;;5066607;28;20759;-74
2024/01/21 13:18:23;;;;;;;;;;;3.40;99.90;;;;;;5100244;27;19961;-74
2024/01/21 13:20:49;;;;;;;;;;;3.50;99.90;;;;;;5066336;28;19932;-74
2024/01/21 13:23:14;;;;;;;;;;;3.30;99.90;;;;;;5066077;28;19924;-74
2024/01/21 13:25:40;;;;;;;;;;;3.30;99.90;;;;;;5067723;28;19977;-74
2024/01/21 13:28:13;;;;;;;;;;;3.50;99.90;;;;;;5084650;28;20535;-74
2024/01/21 13:30:43;;;;;;;;;;;3.30;99.90;;;;;;5082822;28;19951;-74
2024/01/21 13:33:16;;;;;;;;;;;3.40;99.90;;;;;;5082685;28;19986;-74
2024/01/21 13:35:43;;;;;;;;;;;3.30;99.90;;;;;;5082280;28;20772;-74
2024/01/21 13:38:12;;;;;;;;;;;3.50;99.90;;;;;;5068121;28;20037;-74
2024/01/21 13:40:38;;;;;;;;;;;3.40;99.90;;;;;;5081635;28;19946;-75
2024/01/21 13:43:04;;;;;;;;;;;3.50;99.90;;;;;;5085126;28;19927;-74
2024/01/21 13:45:29;;;;;;;;;;;3.50;99.90;;;;;;5099357;27;20064;-74
2024/01/21 13:47:55;;;;;;;;;;;3.40;99.90;;;;;;5069289;28;19935;-74
2024/01/21 13:50:20;;;;;;;;;;;3.60;99.90;;;;;;5067288;28;19932;-75
2024/01/21 13:52:46;;;;;;;;;;;4.80;99.90;;;;;;5067887;28;19935;-74
2024/01/21 13:55:17;;;;;;;;;;;3.50;99.90;;;;;;5084668;28;19928;-74
2024/01/21 13:57:43;;;;;;;;;;;3.60;99.90;;;;;;5065358;28;19923;-73
2024/01/21 14:00:09;;;;;;;;;;;4.20;99.90;;;;;;5065035;28;20010;-75
2024/01/21 14:02:35;;;;;;;;;;;3.60;99.90;;;;;;5099730;28;19927;-77
2024/01/21 14:05:03;;;;;;;;;;;3.50;99.90;;;;;;5066965;28;19927;-79
2024/01/21 14:07:34;;;;;;;;;;;3.60;99.90;;;;;;5083703;28;19929;-78
2024/01/21 14:10:00;;;;;;;;;;;3.70;99.90;;;;;;5065664;28;20238;-77
2024/01/21 14:12:26;;;;;;;;;;;3.00;99.90;;;;;;5065215;28;19928;-79
2024/01/21 14:14:52;;;;;;;;;;;3.70;99.90;;;;;;5066723;27;20306;-76
2024/01/21 14:17:19;;;;;;;;;;;3.80;99.90;;;;;;5080702;28;19967;-74
2024/01/21 14:19:47;;;;;;;;;;;3.70;99.90;;;;;;5098571;28;19924;-73
2024/01/21 14:22:13;;;;;;;;;;;4.40;99.90;;;;;;5064411;28;19931;-73
2024/01/21 14:24:41;;;;;;;;;;;3.80;99.90;;;;;;5067285;28;20385;-73
2024/01/21 14:27:06;;;;;;;;;;;4.00;99.90;;;;;;5082658;28;19928;-73